Time,TemperatureF,DewpointF,PressureIn,WindDirection,WindDirectionDegrees,WindSpeedMPH,WindSpeedGustMPH,Humidity,HourlyPrecipIn,Conditions,Clouds,dailyrainin,SoftwareType,DateUTC
2013-09-21 00:11:00,57.0,21.0,-100.00,WNW,295,4.0,10.0,24,0.00,,,-99.99,,2013-09-21 07:11:00,
2013-09-21 00:21:00,57.0,19.0,-100.00,NW,304,5.0,15.0,22,0.00,,,-99.99,,2013-09-21 07:21:00,
2013-09-21 01:12:00,57.0,17.0,-100.00,NNW,333,4.0,9.0,21,0.00,,,-99.99,,2013-09-21 08:12:00,
2013-09-21 01:21:00,58.0,18.0,-100.00,North,359,3.0,10.0,21,0.00,,,-99.99,,2013-09-21 08:21:00,
2013-09-21 01:31:00,58.0,18.0,-100.00,North,359,3.0,10.0,21,0.00,,,-99.99,,2013-09-21 08:31:00,
2013-09-21 01:42:00,58.0,18.0,-100.00,North,359,3.0,10.0,21,0.00,,,-99.99,,2013-09-21 08:42:00,
2013-09-21 01:52:00,57.0,21.0,-100.00,NNE,16,3.0,10.0,24,0.00,,,-99.99,,2013-09-21 08:52:00,
2013-09-21 02:11:00,56.0,20.0,-100.00,NW,320,4.0,7.0,24,0.00,,,-99.99,,2013-09-21 09:11:00,
2013-09-21 02:43:00,56.0,21.0,-100.00,NW,325,5.0,10.0,25,0.00,,,-99.99,,2013-09-21 09:43:00,
2013-09-21 02:53:00,57.0,23.0,-100.00,NW,305,5.0,12.0,27,0.00,,,-99.99,,2013-09-21 09:53:00,
2013-09-21 03:03:00,57.0,23.0,-100.00,NW,305,5.0,12.0,27,0.00,,,-99.99,,2013-09-21 10:03:00,
2013-09-21 03:23:00,56.0,24.0,-100.00,NNW,333,4.0,9.0,29,0.00,,,-99.99,,2013-09-21 10:23:00,
2013-09-21 03:42:00,56.0,25.0,-100.00,NNW,346,3.0,11.0,30,0.00,,,-99.99,,2013-09-21 10:42:00,
2013-09-21 03:52:00,55.0,26.0,-100.00,WNW,299,5.0,13.0,32,0.00,,,-99.99,,2013-09-21 10:52:00,
2013-09-21 04:02:00,55.0,26.0,-100.00,WNW,299,5.0,13.0,32,0.00,,,-99.99,,2013-09-21 11:02:00,
2013-09-21 04:11:00,55.0,26.0,-100.00,WNW,299,5.0,13.0,32,0.00,,,-99.99,,2013-09-21 11:11:00,
2013-09-21 04:22:00,55.0,26.0,-100.00,WNW,285,3.0,7.0,32,0.00,,,-99.99,,2013-09-21 11:22:00,
2013-09-21 04:33:00,55.0,26.0,-100.00,WNW,285,3.0,7.0,32,0.00,,,-99.99,,2013-09-21 11:33:00,
2013-09-21 04:42:00,55.0,26.0,-100.00,WNW,285,3.0,7.0,32,0.00,,,-99.99,,2013-09-21 11:42:00,
2013-09-21 05:12:00,55.0,27.0,-100.00,NW,304,5.0,13.0,34,0.00,,,-99.99,,2013-09-21 12:12:00,
2013-09-21 05:21:00,56.0,29.0,-100.00,NNW,336,6.0,12.0,35,0.00,,,-99.99,,2013-09-21 12:21:00,
2013-09-21 05:42:00,55.0,30.0,-100.00,WNW,299,7.0,16.0,38,0.00,,,-99.99,,2013-09-21 12:42:00,
2013-09-21 05:52:00,55.0,30.0,-100.00,WNW,299,7.0,16.0,38,0.00,,,-99.99,,2013-09-21 12:52:00,
2013-09-21 06:11:00,55.0,31.0,-100.00,NW,323,9.0,18.0,39,0.00,,,-99.99,,2013-09-21 13:11:00,
2013-09-21 06:21:00,55.0,30.0,-100.00,WNW,285,8.0,13.0,38,0.00,,,-99.99,,2013-09-21 13:21:00,
2013-09-21 06:32:00,55.0,30.0,-100.00,WNW,285,8.0,13.0,38,0.00,,,-99.99,,2013-09-21 13:32:00,
2013-09-21 06:42:00,55.0,30.0,-100.00,WNW,285,8.0,13.0,38,0.00,,,-99.99,,2013-09-21 13:42:00,
2013-09-21 07:22:00,54.0,31.0,-100.00,WNW,289,6.0,15.0,41,0.00,,,-99.99,,2013-09-21 14:22:00,
2013-09-21 07:42:00,55.0,31.0,-100.00,SW,236,5.0,14.0,40,0.00,,,-99.99,,2013-09-21 14:42:00,
2013-09-21 07:52:00,58.0,30.0,-100.00,NW,315,6.0,15.0,34,0.00,,,-99.99,,2013-09-21 14:52:00,
2013-09-21 08:01:00,58.0,30.0,-100.00,NW,315,6.0,15.0,34,0.00,,,-99.99,,2013-09-21 15:01:00,
2013-09-21 08:22:00,57.0,31.0,-100.00,North,354,5.0,17.0,37,0.00,,,-99.99,,2013-09-21 15:22:00,
2013-09-21 08:41:00,58.0,32.0,-100.00,SE,141,4.0,17.0,37,0.00,,,-99.99,,2013-09-21 15:41:00,
2013-09-21 08:44:00,57.0,31.0,-100.00,NW,320,6.0,15.0,37,0.00,,,-99.99,,2013-09-21 15:44:00,
2013-09-21 08:54:00,58.0,33.0,-100.00,ENE,65,4.0,11.0,38,0.00,,,-99.99,,2013-09-21 15:54:00,
2013-09-21 09:05:00,58.0,33.0,-100.00,ENE,65,4.0,11.0,38,0.00,,,-99.99,,2013-09-21 16:05:00,
2013-09-21 09:24:00,58.0,32.0,-100.00,SE,141,4.0,17.0,37,0.00,,,-99.99,,2013-09-21 16:24:00,
2013-09-21 09:34:00,58.0,32.0,-100.00,SE,141,4.0,17.0,37,0.00,,,-99.99,,2013-09-21 16:34:00,
2013-09-21 10:12:00,59.0,30.0,-100.00,East,88,5.0,27.0,33,0.00,,,-99.99,,2013-09-21 17:12:00,
2013-09-21 10:23:00,61.0,32.0,-100.00,ESE,123,9.0,23.0,34,0.00,,,-99.99,,2013-09-21 17:23:00,
2013-09-21 10:43:00,64.0,30.0,-100.00,East,96,6.0,17.0,28,0.00,,,-99.99,,2013-09-21 17:43:00,
2013-09-21 11:12:00,63.0,32.0,-100.00,North,4,7.0,19.0,31,0.00,,,-99.99,,2013-09-21 18:12:00,
2013-09-21 11:22:00,63.0,30.0,-100.00,SSE,154,9.0,24.0,29,0.00,,,-99.99,,2013-09-21 18:22:00,
2013-09-21 11:32:00,63.0,30.0,-100.00,SSE,154,9.0,24.0,29,0.00,,,-99.99,,2013-09-21 18:32:00,
2013-09-21 12:11:00,64.0,31.0,-100.00,WSW,241,8.0,19.0,29,0.00,,,-99.99,,2013-09-21 19:11:00,
2013-09-21 12:21:00,61.0,36.0,-100.00,North,11,5.0,15.0,39,0.00,,,-99.99,,2013-09-21 19:21:00,
2013-09-21 12:32:00,61.0,36.0,-100.00,North,11,5.0,15.0,39,0.00,,,-99.99,,2013-09-21 19:32:00,
2013-09-21 12:42:00,61.0,36.0,-100.00,North,11,5.0,15.0,39,0.00,,,-99.99,,2013-09-21 19:42:00,
2013-09-21 12:52:00,57.0,40.0,-100.00,NNW,343,8.0,23.0,52,0.00,,,-99.99,,2013-09-21 19:52:00,
2013-09-21 13:02:00,57.0,40.0,-100.00,NNW,343,8.0,23.0,52,0.00,,,-99.99,,2013-09-21 20:02:00,
2013-09-21 13:12:00,57.0,40.0,-100.00,NNW,343,8.0,23.0,52,0.00,,,-99.99,,2013-09-21 20:12:00,
2013-09-21 13:22:00,56.0,36.0,-100.00,North,-999,-999.0,-999.0,47,0.00,,,-99.99,,2013-09-21 20:22:00,
2013-09-21 13:42:00,56.0,36.0,-100.00,West,278,12.0,31.0,47,3.00,,,-99.99,,2013-09-21 20:42:00,
2013-09-21 13:52:00,49.0,41.0,-100.00,West,275,17.0,36.0,73,3.00,,,-99.99,,2013-09-21 20:52:00,
2013-09-21 14:00:00,55.0,40.0,-100.00,WSW,240,8.0,29.0,57,0.00,,,-99.99,,2013-09-21 21:00:00,
2013-09-21 14:02:00,49.0,41.0,-100.00,West,275,17.0,36.0,73,3.00,,,-99.99,,2013-09-21 21:02:00,
2013-09-21 14:21:00,47.0,41.0,-100.00,WNW,282,11.0,23.0,78,0.00,,,-99.99,,2013-09-21 21:21:00,
2013-09-21 14:45:00,55.0,40.0,-100.00,WSW,240,8.0,29.0,57,0.00,,,-99.99,,2013-09-21 21:45:00,
2013-09-21 14:54:00,55.0,40.0,-100.00,WSW,240,8.0,29.0,57,0.00,,,-99.99,,2013-09-21 21:54:00,
2013-09-21 15:23:00,55.0,39.0,-100.00,West,271,10.0,30.0,55,0.00,,,-99.99,,2013-09-21 22:23:00,
2013-09-21 15:43:00,57.0,38.0,-100.00,West,267,7.0,19.0,49,0.00,,,-99.99,,2013-09-21 22:43:00,
2013-09-21 16:12:00,56.0,36.0,-100.00,WNW,285,8.0,22.0,47,0.00,,,-99.99,,2013-09-21 23:12:00,
2013-09-21 16:22:00,55.0,38.0,-100.00,NW,320,5.0,20.0,53,0.00,,,-99.99,,2013-09-21 23:22:00,
2013-09-21 17:22:00,44.0,38.0,-100.00,NW,319,9.0,22.0,80,0.00,,,-99.99,,2013-09-22 00:22:00,
2013-09-21 17:43:00,46.0,38.0,-100.00,North,6,7.0,16.0,74,0.00,,,-99.99,,2013-09-22 00:43:00,
2013-09-21 18:11:00,45.0,38.0,-100.00,NW,313,4.0,11.0,77,1.00,,,-99.99,,2013-09-22 01:11:00,
2013-09-21 18:21:00,45.0,38.0,-100.00,NW,313,4.0,11.0,77,0.00,,,-99.99,,2013-09-22 01:21:00,
2013-09-21 18:42:00,45.0,37.0,-100.00,WNW,282,3.0,12.0,72,0.00,,,-99.99,,2013-09-22 01:42:00,
2013-09-21 18:52:00,45.0,37.0,-100.00,WSW,258,5.0,15.0,72,0.00,,,-99.99,,2013-09-22 01:52:00,
2013-09-21 19:02:00,45.0,37.0,-100.00,WSW,258,5.0,15.0,72,2.00,,,-99.99,,2013-09-22 02:02:00,
2013-09-21 19:22:00,43.0,36.0,-100.00,West,275,6.0,17.0,75,0.00,,,-99.99,,2013-09-22 02:22:00,
2013-09-21 19:42:00,43.0,35.0,-100.00,SW,230,5.0,19.0,73,0.00,,,-99.99,,2013-09-22 02:42:00,
2013-09-21 19:52:00,44.0,34.0,-100.00,West,260,9.0,22.0,67,0.00,,,-99.99,,2013-09-22 02:52:00,
2013-09-21 20:12:00,44.0,34.0,-100.00,NNW,335,8.0,23.0,68,0.00,,,-99.99,,2013-09-22 03:12:00,
2013-09-21 20:22:00,44.0,34.0,-100.00,NNW,335,8.0,23.0,68,0.00,,,-99.99,,2013-09-22 03:22:00,
2013-09-21 20:45:00,43.0,34.0,-100.00,WNW,284,3.0,9.0,71,0.00,,,-99.99,,2013-09-22 03:45:00,
2013-09-21 20:54:00,43.0,35.0,-100.00,WNW,291,5.0,17.0,72,0.00,,,-99.99,,2013-09-22 03:54:00,
2013-09-21 21:02:00,-999.0,-99.9,-100.00,WNW,291,5.0,17.0,-999,-99.99,,,-99.99,,2013-09-22 04:02:00,
2013-09-21 21:23:00,43.0,34.0,-100.00,WNW,285,3.0,9.0,70,0.00,,,-99.99,,2013-09-22 04:23:00,
2013-09-21 21:33:00,43.0,34.0,-100.00,WNW,285,3.0,9.0,70,0.00,,,-99.99,,2013-09-22 04:33:00,
2013-09-21 22:13:00,41.0,35.0,-100.00,East,93,2.0,6.0,79,0.00,,,-99.99,,2013-09-22 05:13:00,
2013-09-21 22:23:00,43.0,35.0,-100.00,SSE,162,2.0,12.0,74,0.00,,,-99.99,,2013-09-22 05:23:00,
2013-09-21 22:43:00,42.0,35.0,-100.00,NE,47,2.0,16.0,75,0.00,,,-99.99,,2013-09-22 05:43:00,
2013-09-21 23:12:00,42.0,35.0,-100.00,SSW,209,3.0,6.0,75,0.00,,,-99.99,,2013-09-22 06:12:00,
2013-09-21 23:22:00,42.0,34.0,-100.00,NW,325,2.0,9.0,74,0.00,,,-99.99,,2013-09-22 06:22:00,
2013-09-21 23:32:00,43.0,34.0,-100.00,NW,304,2.0,7.0,69,0.00,,,-99.99,,2013-09-22 06:32:00,
2013-09-21 23:42:00,42.0,34.0,-100.00,WSW,253,1.0,4.0,74,0.00,,,-99.99,,2013-09-22 06:42:00,